sensor_id;sensor_type;location;lat;lon;timestamp;temperature;humidity
53272;DHT22;39160;48.580;7.756;2023-05-10T00:02:21;16.40;99.90
53272;DHT22;39160;48.580;7.756;2023-05-10T00:07:12;16.50;99.90
53272;DHT22;39160;48.580;7.756;2023-05-10T00:12:02;16.50;99.90
53272;DHT22;39160;48.580;7.756;2023-05-10T00:16:53;16.40;99.90
53272;DHT22;39160;48.580;7.756;2023-05-10T00:21:44;16.60;99.90
53272;DHT22;39160;48.580;7.756;2023-05-10T00:26:34;16.60;99.90
53272;DHT22;39160;48.580;7.756;2023-05-10T00:31:25;16.40;99.90
53272;DHT22;39160;48.580;7.756;2023-05-10T00:36:16;16.40;99.90
53272;DHT22;39160;48.580;7.756;2023-05-10T00:41:07;16.40;99.90
53272;DHT22;39160;48.580;7.756;2023-05-10T00:45:58;16.50;99.90
53272;DHT22;39160;48.580;7.756;2023-05-10T00:50:48;16.50;99.90
53272;DHT22;39160;48.580;7.756;2023-05-10T00:55:39;16.50;99.90
53272;DHT22;39160;48.580;7.756;2023-05-10T01:00:31;16.60;99.90
53272;DHT22;39160;48.580;7.756;2023-05-10T01:05:22;16.60;99.90
53272;DHT22;39160;48.580;7.756;2023-05-10T01:10:13;16.60;99.90
53272;DHT22;39160;48.580;7.756;2023-05-10T01:15:06;16.60;99.90
53272;DHT22;39160;48.580;7.756;2023-05-10T01:19:57;16.60;99.90
53272;DHT22;39160;48.580;7.756;2023-05-10T01:25:22;16.60;99.90
53272;DHT22;39160;48.580;7.756;2023-05-10T01:35:26;16.60;99.90
53272;DHT22;39160;48.580;7.756;2023-05-10T01:40:30;16.40;99.90
53272;DHT22;39160;48.580;7.756;2023-05-10T01:45:33;16.40;99.90
53272;DHT22;39160;48.580;7.756;2023-05-10T01:50:29;16.30;99.90
53272;DHT22;39160;48.580;7.756;2023-05-10T01:55:21;16.20;99.90
53272;DHT22;39160;48.580;7.756;2023-05-10T02:00:13;16.00;99.90
53272;DHT22;39160;48.580;7.756;2023-05-10T02:05:06;16.00;99.90
53272;DHT22;39160;48.580;7.756;2023-05-10T02:09:58;16.10;99.90
53272;DHT22;39160;48.580;7.756;2023-05-10T02:14:51;16.10;99.90
53272;DHT22;39160;48.580;7.756;2023-05-10T02:19:43;16.20;99.90
53272;DHT22;39160;48.580;7.756;2023-05-10T02:24:36;16.10;99.90
53272;DHT22;39160;48.580;7.756;2023-05-10T02:29:28;16.20;99.90
53272;DHT22;39160;48.580;7.756;2023-05-10T02:34:20;16.20;99.90
53272;DHT22;39160;48.580;7.756;2023-05-10T02:39:12;16.20;99.90
53272;DHT22;39160;48.580;7.756;2023-05-10T02:44:06;16.20;99.90
53272;DHT22;39160;48.580;7.756;2023-05-10T02:48:58;16.10;99.90
53272;DHT22;39160;48.580;7.756;2023-05-10T02:53:49;16.00;99.90
53272;DHT22;39160;48.580;7.756;2023-05-10T02:58:41;16.10;99.90
53272;DHT22;39160;48.580;7.756;2023-05-10T03:03:32;16.10;99.90
53272;DHT22;39160;48.580;7.756;2023-05-10T03:08:23;16.20;99.90
53272;DHT22;39160;48.580;7.756;2023-05-10T03:13:36;16.20;99.90
53272;DHT22;39160;48.580;7.756;2023-05-10T03:23:53;16.10;99.90
53272;DHT22;39160;48.580;7.756;2023-05-10T03:28:48;16.00;99.90
53272;DHT22;39160;48.580;7.756;2023-05-10T03:33:50;16.00;99.90
53272;DHT22;39160;48.580;7.756;2023-05-10T03:38:41;16.00;99.90
53272;DHT22;39160;48.580;7.756;2023-05-10T03:43:31;16.00;99.90
53272;DHT22;39160;48.580;7.756;2023-05-10T03:48:22;15.90;99.90
53272;DHT22;39160;48.580;7.756;2023-05-10T03:53:13;15.80;99.90
53272;DHT22;39160;48.580;7.756;2023-05-10T03:58:03;15.70;99.90
53272;DHT22;39160;48.580;7.756;2023-05-10T04:02:54;15.70;99.90
53272;DHT22;39160;48.580;7.756;2023-05-10T04:07:45;15.60;99.90
53272;DHT22;39160;48.580;7.756;2023-05-10T04:12:35;15.60;99.90
53272;DHT22;39160;48.580;7.756;2023-05-10T04:17:26;15.70;99.90
53272;DHT22;39160;48.580;7.756;2023-05-10T04:22:16;15.80;99.90
53272;DHT22;39160;48.580;7.756;2023-05-10T04:27:07;15.80;99.90
53272;DHT22;39160;48.580;7.756;2023-05-10T04:31:58;15.70;99.90
53272;DHT22;39160;48.580;7.756;2023-05-10T04:36:49;15.60;99.90
53272;DHT22;39160;48.580;7.756;2023-05-10T04:41:39;15.60;99.90
53272;DHT22;39160;48.580;7.756;2023-05-10T04:46:30;15.60;99.90
53272;DHT22;39160;48.580;7.756;2023-05-10T04:51:21;15.60;99.90
53272;DHT22;39160;48.580;7.756;2023-05-10T04:56:11;15.50;99.90
53272;DHT22;39160;48.580;7.756;2023-05-10T05:01:08;15.50;99.90
53272;DHT22;39160;48.580;7.756;2023-05-10T05:05:59;15.40;99.90
53272;DHT22;39160;48.580;7.756;2023-05-10T05:10:50;15.50;99.90
53272;DHT22;39160;48.580;7.756;2023-05-10T05:15:41;15.60;99.90
53272;DHT22;39160;48.580;7.756;2023-05-10T05:20:34;15.60;99.90
53272;DHT22;39160;48.580;7.756;2023-05-10T05:25:25;15.60;99.90
53272;DHT22;39160;48.580;7.756;2023-05-10T05:30:17;15.60;99.90
53272;DHT22;39160;48.580;7.756;2023-05-10T05:35:08;15.60;99.90
53272;DHT22;39160;48.580;7.756;2023-05-10T05:39:58;15.60;99.90
53272;DHT22;39160;48.580;7.756;2023-05-10T05:44:51;15.60;99.90
53272;DHT22;39160;48.580;7.756;2023-05-10T05:49:42;15.70;99.90
53272;DHT22;39160;48.580;7.756;2023-05-10T05:54:32;15.70;99.90
53272;DHT22;39160;48.580;7.756;2023-05-10T05:59:23;15.60;99.90
53272;DHT22;39160;48.580;7.756;2023-05-10T06:04:15;15.70;99.90
53272;DHT22;39160;48.580;7.756;2023-05-10T06:09:06;15.70;99.90
53272;DHT22;39160;48.580;7.756;2023-05-10T06:13:57;15.80;99.90
53272;DHT22;39160;48.580;7.756;2023-05-10T06:18:48;15.80;99.90
53272;DHT22;39160;48.580;7.756;2023-05-10T06:23:38;16.00;99.90
53272;DHT22;39160;48.580;7.756;2023-05-10T06:28:29;16.00;99.90
53272;DHT22;39160;48.580;7.756;2023-05-10T06:33:21;15.90;99.90
53272;DHT22;39160;48.580;7.756;2023-05-10T06:38:12;15.90;99.90
53272;DHT22;39160;48.580;7.756;2023-05-10T06:43:02;16.00;99.90
53272;DHT22;39160;48.580;7.756;2023-05-10T06:47:53;16.10;99.90
53272;DHT22;39160;48.580;7.756;2023-05-10T06:52:44;16.10;99.90
53272;DHT22;39160;48.580;7.756;2023-05-10T06:57:34;16.00;99.90
53272;DHT22;39160;48.580;7.756;2023-05-10T07:02:25;16.10;99.90
53272;DHT22;39160;48.580;7.756;2023-05-10T07:07:16;16.30;99.90
53272;DHT22;39160;48.580;7.756;2023-05-10T07:12:07;16.30;99.90
53272;DHT22;39160;48.580;7.756;2023-05-10T07:16:57;16.50;99.90
53272;DHT22;39160;48.580;7.756;2023-05-10T07:21:48;16.30;99.90
53272;DHT22;39160;48.580;7.756;2023-05-10T07:26:38;16.40;99.90
53272;DHT22;39160;48.580;7.756;2023-05-10T07:31:29;16.50;99.90
53272;DHT22;39160;48.580;7.756;2023-05-10T07:36:20;16.40;99.90
53272;DHT22;39160;48.580;7.756;2023-05-10T07:41:12;16.50;99.90
53272;DHT22;39160;48.580;7.756;2023-05-10T07:46:02;16.60;99.90
53272;DHT22;39160;48.580;7.756;2023-05-10T07:50:53;16.50;99.90
53272;DHT22;39160;48.580;7.756;2023-05-10T07:55:44;16.40;99.90
53272;DHT22;39160;48.580;7.756;2023-05-10T08:00:35;16.20;99.90
53272;DHT22;39160;48.580;7.756;2023-05-10T08:05:26;16.10;99.90
53272;DHT22;39160;48.580;7.756;2023-05-10T08:10:16;16.00;99.90
53272;DHT22;39160;48.580;7.756;2023-05-10T08:15:08;16.00;99.90
53272;DHT22;39160;48.580;7.756;2023-05-10T08:19:59;16.00;99.90
53272;DHT22;39160;48.580;7.756;2023-05-10T08:24:49;15.90;99.90
53272;DHT22;39160;48.580;7.756;2023-05-10T08:29:40;16.00;99.90
53272;DHT22;39160;48.580;7.756;2023-05-10T08:34:30;16.20;99.90
53272;DHT22;39160;48.580;7.756;2023-05-10T08:39:21;16.40;99.90
53272;DHT22;39160;48.580;7.756;2023-05-10T08:44:13;16.60;99.90
53272;DHT22;39160;48.580;7.756;2023-05-10T08:49:07;16.60;99.90
53272;DHT22;39160;48.580;7.756;2023-05-10T08:53:58;16.90;99.90
53272;DHT22;39160;48.580;7.756;2023-05-10T08:58:50;16.90;99.90
53272;DHT22;39160;48.580;7.756;2023-05-10T09:03:41;17.00;99.90
53272;DHT22;39160;48.580;7.756;2023-05-10T09:08:33;16.70;99.90
53272;DHT22;39160;48.580;7.756;2023-05-10T09:13:24;16.60;99.90
53272;DHT22;39160;48.580;7.756;2023-05-10T09:18:16;16.40;99.90
53272;DHT22;39160;48.580;7.756;2023-05-10T09:23:07;16.40;99.90
53272;DHT22;39160;48.580;7.756;2023-05-10T09:27:58;16.30;99.90
53272;DHT22;39160;48.580;7.756;2023-05-10T09:32:49;16.40;99.90
53272;DHT22;39160;48.580;7.756;2023-05-10T09:37:42;16.50;99.90
53272;DHT22;39160;48.580;7.756;2023-05-10T09:42:34;16.60;99.90
53272;DHT22;39160;48.580;7.756;2023-05-10T09:47:25;16.90;99.90
53272;DHT22;39160;48.580;7.756;2023-05-10T09:52:16;17.00;99.90
53272;DHT22;39160;48.580;7.756;2023-05-10T09:57:19;17.20;99.90
53272;DHT22;39160;48.580;7.756;2023-05-10T10:02:10;17.50;99.90
53272;DHT22;39160;48.580;7.756;2023-05-10T10:07:03;17.70;99.90
53272;DHT22;39160;48.580;7.756;2023-05-10T10:11:54;17.50;99.90
53272;DHT22;39160;48.580;7.756;2023-05-10T10:16:46;17.50;99.90
53272;DHT22;39160;48.580;7.756;2023-05-10T10:21:37;17.50;99.90
53272;DHT22;39160;48.580;7.756;2023-05-10T10:26:27;17.50;99.90
53272;DHT22;39160;48.580;7.756;2023-05-10T10:31:36;17.50;99.90
53272;DHT22;39160;48.580;7.756;2023-05-10T10:36:29;17.50;99.90
53272;DHT22;39160;48.580;7.756;2023-05-10T10:41:29;17.40;99.90
53272;DHT22;39160;48.580;7.756;2023-05-10T10:46:20;17.20;99.90
53272;DHT22;39160;48.580;7.756;2023-05-10T10:51:13;17.40;99.90
53272;DHT22;39160;48.580;7.756;2023-05-10T10:56:13;17.30;99.60
53272;DHT22;39160;48.580;7.756;2023-05-10T11:01:20;17.40;99.20
53272;DHT22;39160;48.580;7.756;2023-05-10T11:06:11;17.50;98.90
53272;DHT22;39160;48.580;7.756;2023-05-10T11:11:05;17.80;98.80
53272;DHT22;39160;48.580;7.756;2023-05-10T11:16:09;18.00;98.60
53272;DHT22;39160;48.580;7.756;2023-05-10T11:21:01;18.70;98.20
53272;DHT22;39160;48.580;7.756;2023-05-10T11:26:00;19.10;97.90
53272;DHT22;39160;48.580;7.756;2023-05-10T11:30:51;19.00;97.90
53272;DHT22;39160;48.580;7.756;2023-05-10T11:35:43;18.90;98.00
53272;DHT22;39160;48.580;7.756;2023-05-10T11:40:34;18.90;97.70
53272;DHT22;39160;48.580;7.756;2023-05-10T11:45:25;19.10;97.50
53272;DHT22;39160;48.580;7.756;2023-05-10T11:50:17;19.30;97.50
53272;DHT22;39160;48.580;7.756;2023-05-10T11:55:08;19.10;97.30
53272;DHT22;39160;48.580;7.756;2023-05-10T11:59:58;18.60;97.50
53272;DHT22;39160;48.580;7.756;2023-05-10T12:04:50;18.70;97.40
53272;DHT22;39160;48.580;7.756;2023-05-10T12:09:44;18.40;97.30
53272;DHT22;39160;48.580;7.756;2023-05-10T12:14:35;18.40;97.10
53272;DHT22;39160;48.580;7.756;2023-05-10T12:19:26;18.50;97.20
53272;DHT22;39160;48.580;7.756;2023-05-10T12:24:17;18.70;97.40
53272;DHT22;39160;48.580;7.756;2023-05-10T12:29:16;18.80;97.50
53272;DHT22;39160;48.580;7.756;2023-05-10T12:34:08;18.70;97.50
53272;DHT22;39160;48.580;7.756;2023-05-10T12:39:04;18.70;97.60
53272;DHT22;39160;48.580;7.756;2023-05-10T12:43:55;19.30;97.60
53272;DHT22;39160;48.580;7.756;2023-05-10T12:48:46;20.00;97.60
53272;DHT22;39160;48.580;7.756;2023-05-10T12:53:40;20.00;97.60
53272;DHT22;39160;48.580;7.756;2023-05-10T12:58:30;21.60;97.60
53272;DHT22;39160;48.580;7.756;2023-05-10T13:03:21;21.00;97.30
53272;DHT22;39160;48.580;7.756;2023-05-10T13:08:12;21.00;97.20
53272;DHT22;39160;48.580;7.756;2023-05-10T13:13:03;21.30;96.80
53272;DHT22;39160;48.580;7.756;2023-05-10T13:17:54;21.30;96.50
53272;DHT22;39160;48.580;7.756;2023-05-10T13:22:45;21.80;96.40
53272;DHT22;39160;48.580;7.756;2023-05-10T13:27:36;23.20;95.50
53272;DHT22;39160;48.580;7.756;2023-05-10T13:32:26;22.00;95.70
53272;DHT22;39160;48.580;7.756;2023-05-10T13:37:17;20.70;96.10
53272;DHT22;39160;48.580;7.756;2023-05-10T13:42:07;19.60;96.20
53272;DHT22;39160;48.580;7.756;2023-05-10T13:46:58;18.90;96.20
53272;DHT22;39160;48.580;7.756;2023-05-10T13:51:49;18.80;96.30
53272;DHT22;39160;48.580;7.756;2023-05-10T13:56:41;20.30;96.00
53272;DHT22;39160;48.580;7.756;2023-05-10T14:01:32;24.40;94.50
53272;DHT22;39160;48.580;7.756;2023-05-10T14:06:23;26.00;94.10
53272;DHT22;39160;48.580;7.756;2023-05-10T14:11:14;26.40;94.00
53272;DHT22;39160;48.580;7.756;2023-05-10T14:16:05;24.00;95.00
53272;DHT22;39160;48.580;7.756;2023-05-10T14:20:56;21.40;96.10
53272;DHT22;39160;48.580;7.756;2023-05-10T14:25:46;20.00;96.50
53272;DHT22;39160;48.580;7.756;2023-05-10T14:30:37;18.80;96.70
53272;DHT22;39160;48.580;7.756;2023-05-10T14:35:28;18.80;97.00
53272;DHT22;39160;48.580;7.756;2023-05-10T14:40:21;18.50;97.00
53272;DHT22;39160;48.580;7.756;2023-05-10T14:45:12;18.10;97.60
53272;DHT22;39160;48.580;7.756;2023-05-10T14:50:03;17.70;97.90
53272;DHT22;39160;48.580;7.756;2023-05-10T14:54:54;18.20;97.80
53272;DHT22;39160;48.580;7.756;2023-05-10T14:59:44;20.80;96.80
53272;DHT22;39160;48.580;7.756;2023-05-10T15:04:35;23.70;95.90
53272;DHT22;39160;48.580;7.756;2023-05-10T15:09:26;24.50;95.70
53272;DHT22;39160;48.580;7.756;2023-05-10T15:14:17;24.80;95.50
53272;DHT22;39160;48.580;7.756;2023-05-10T15:19:08;24.00;95.40
53272;DHT22;39160;48.580;7.756;2023-05-10T15:23:59;23.80;95.80
53272;DHT22;39160;48.580;7.756;2023-05-10T15:28:49;25.00;94.60
53272;DHT22;39160;48.580;7.756;2023-05-10T15:33:40;23.40;94.70
53272;DHT22;39160;48.580;7.756;2023-05-10T15:38:31;21.60;95.70
53272;DHT22;39160;48.580;7.756;2023-05-10T15:43:22;20.80;95.20
53272;DHT22;39160;48.580;7.756;2023-05-10T15:48:12;22.30;93.90
53272;DHT22;39160;48.580;7.756;2023-05-10T15:53:03;22.00;93.10
53272;DHT22;39160;48.580;7.756;2023-05-10T15:57:54;24.10;90.70
53272;DHT22;39160;48.580;7.756;2023-05-10T16:02:44;26.00;87.70
53272;DHT22;39160;48.580;7.756;2023-05-10T16:07:35;28.40;83.20
53272;DHT22;39160;48.580;7.756;2023-05-10T16:12:26;29.20;79.00
53272;DHT22;39160;48.580;7.756;2023-05-10T16:17:17;28.60;74.90
53272;DHT22;39160;48.580;7.756;2023-05-10T16:22:09;23.40;81.70
53272;DHT22;39160;48.580;7.756;2023-05-10T16:27:00;21.40;83.40
53272;DHT22;39160;48.580;7.756;2023-05-10T16:31:50;20.50;84.60
53272;DHT22;39160;48.580;7.756;2023-05-10T16:36:41;20.20;84.50
53272;DHT22;39160;48.580;7.756;2023-05-10T16:41:32;20.00;85.00
53272;DHT22;39160;48.580;7.756;2023-05-10T16:46:23;19.90;85.30
53272;DHT22;39160;48.580;7.756;2023-05-10T16:51:14;20.00;85.60
53272;DHT22;39160;48.580;7.756;2023-05-10T16:56:05;19.60;86.10
53272;DHT22;39160;48.580;7.756;2023-05-10T17:00:55;19.70;85.90
53272;DHT22;39160;48.580;7.756;2023-05-10T17:05:46;19.60;86.30
53272;DHT22;39160;48.580;7.756;2023-05-10T17:10:40;20.30;85.70
53272;DHT22;39160;48.580;7.756;2023-05-10T17:15:30;20.50;85.30
53272;DHT22;39160;48.580;7.756;2023-05-10T17:20:21;22.90;84.20
53272;DHT22;39160;48.580;7.756;2023-05-10T17:25:12;26.70;78.70
53272;DHT22;39160;48.580;7.756;2023-05-10T17:30:03;26.00;79.50
53272;DHT22;39160;48.580;7.756;2023-05-10T17:34:54;22.70;82.90
53272;DHT22;39160;48.580;7.756;2023-05-10T17:39:44;21.10;84.70
53272;DHT22;39160;48.580;7.756;2023-05-10T17:44:35;20.70;84.40
53272;DHT22;39160;48.580;7.756;2023-05-10T17:49:26;20.20;84.60
53272;DHT22;39160;48.580;7.756;2023-05-10T17:54:18;19.80;85.20
53272;DHT22;39160;48.580;7.756;2023-05-10T17:59:08;19.70;85.20
53272;DHT22;39160;48.580;7.756;2023-05-10T18:03:59;19.00;85.90
53272;DHT22;39160;48.580;7.756;2023-05-10T18:08:50;18.90;86.40
53272;DHT22;39160;48.580;7.756;2023-05-10T18:13:40;18.90;86.50
53272;DHT22;39160;48.580;7.756;2023-05-10T18:18:31;18.60;87.00
53272;DHT22;39160;48.580;7.756;2023-05-10T18:23:22;18.40;87.40
53272;DHT22;39160;48.580;7.756;2023-05-10T18:28:13;18.40;87.90
53272;DHT22;39160;48.580;7.756;2023-05-10T18:33:04;18.30;88.50
53272;DHT22;39160;48.580;7.756;2023-05-10T18:37:55;18.10;88.80
53272;DHT22;39160;48.580;7.756;2023-05-10T18:42:45;18.10;88.90
53272;DHT22;39160;48.580;7.756;2023-05-10T18:47:36;18.10;89.30
53272;DHT22;39160;48.580;7.756;2023-05-10T18:52:27;18.20;89.40
53272;DHT22;39160;48.580;7.756;2023-05-10T18:57:17;18.00;89.60
53272;DHT22;39160;48.580;7.756;2023-05-10T19:02:10;17.80;90.00
53272;DHT22;39160;48.580;7.756;2023-05-10T19:07:01;17.80;90.20
53272;DHT22;39160;48.580;7.756;2023-05-10T19:11:52;17.60;90.50
53272;DHT22;39160;48.580;7.756;2023-05-10T19:16:43;17.70;90.60
53272;DHT22;39160;48.580;7.756;2023-05-10T19:21:34;17.50;90.80
53272;DHT22;39160;48.580;7.756;2023-05-10T19:26:24;17.50;91.00
53272;DHT22;39160;48.580;7.756;2023-05-10T19:31:15;17.30;91.40
53272;DHT22;39160;48.580;7.756;2023-05-10T19:36:06;17.10;91.60
53272;DHT22;39160;48.580;7.756;2023-05-10T19:40:57;17.20;91.90
53272;DHT22;39160;48.580;7.756;2023-05-10T19:45:48;17.10;92.20
53272;DHT22;39160;48.580;7.756;2023-05-10T19:50:39;17.10;92.40
53272;DHT22;39160;48.580;7.756;2023-05-10T19:55:30;17.20;92.40
53272;DHT22;39160;48.580;7.756;2023-05-10T20:00:21;17.30;92.60
53272;DHT22;39160;48.580;7.756;2023-05-10T20:05:12;17.30;92.70
53272;DHT22;39160;48.580;7.756;2023-05-10T20:10:03;17.10;93.00
53272;DHT22;39160;48.580;7.756;2023-05-10T20:14:53;17.00;93.20
53272;DHT22;39160;48.580;7.756;2023-05-10T20:19:44;16.80;93.50
53272;DHT22;39160;48.580;7.756;2023-05-10T20:24:35;16.70;93.70
53272;DHT22;39160;48.580;7.756;2023-05-10T20:29:25;16.60;94.00
53272;DHT22;39160;48.580;7.756;2023-05-10T20:34:16;16.70;94.00
53272;DHT22;39160;48.580;7.756;2023-05-10T20:39:07;16.60;94.20
53272;DHT22;39160;48.580;7.756;2023-05-10T20:43:58;16.40;94.40
53272;DHT22;39160;48.580;7.756;2023-05-10T20:48:49;16.40;94.60
53272;DHT22;39160;48.580;7.756;2023-05-10T20:53:40;16.40;94.60
53272;DHT22;39160;48.580;7.756;2023-05-10T20:58:34;16.40;94.70
53272;DHT22;39160;48.580;7.756;2023-05-10T21:03:28;16.40;94.80
53272;DHT22;39160;48.580;7.756;2023-05-10T21:08:19;16.40;94.90
53272;DHT22;39160;48.580;7.756;2023-05-10T21:13:10;16.40;94.90
53272;DHT22;39160;48.580;7.756;2023-05-10T21:18:00;16.50;95.20
53272;DHT22;39160;48.580;7.756;2023-05-10T21:22:51;16.40;95.10
53272;DHT22;39160;48.580;7.756;2023-05-10T21:27:42;16.40;95.30
53272;DHT22;39160;48.580;7.756;2023-05-10T21:32:32;16.30;95.40
53272;DHT22;39160;48.580;7.756;2023-05-10T21:37:23;16.20;95.60
53272;DHT22;39160;48.580;7.756;2023-05-10T21:42:14;16.20;95.80
53272;DHT22;39160;48.580;7.756;2023-05-10T21:47:04;16.10;95.80
53272;DHT22;39160;48.580;7.756;2023-05-10T21:51:55;16.20;96.00
53272;DHT22;39160;48.580;7.756;2023-05-10T21:56:46;16.20;96.00
53272;DHT22;39160;48.580;7.756;2023-05-10T22:01:37;16.10;96.20
53272;DHT22;39160;48.580;7.756;2023-05-10T22:06:27;16.00;96.40
53272;DHT22;39160;48.580;7.756;2023-05-10T22:11:18;16.00;96.40
53272;DHT22;39160;48.580;7.756;2023-05-10T22:16:08;16.10;96.60
53272;DHT22;39160;48.580;7.756;2023-05-10T22:20:59;16.20;96.60
53272;DHT22;39160;48.580;7.756;2023-05-10T22:25:50;16.10;96.60
53272;DHT22;39160;48.580;7.756;2023-05-10T22:30:42;16.10;96.80
53272;DHT22;39160;48.580;7.756;2023-05-10T22:35:32;16.10;96.90
53272;DHT22;39160;48.580;7.756;2023-05-10T22:40:23;16.00;97.10
53272;DHT22;39160;48.580;7.756;2023-05-10T22:45:14;16.10;97.10
53272;DHT22;39160;48.580;7.756;2023-05-10T22:50:05;16.00;97.20
53272;DHT22;39160;48.580;7.756;2023-05-10T22:54:56;16.00;97.30
53272;DHT22;39160;48.580;7.756;2023-05-10T22:59:47;16.10;97.30
53272;DHT22;39160;48.580;7.756;2023-05-10T23:04:38;16.10;97.40
53272;DHT22;39160;48.580;7.756;2023-05-10T23:09:28;16.00;97.50
53272;DHT22;39160;48.580;7.756;2023-05-10T23:14:19;16.00;97.60
53272;DHT22;39160;48.580;7.756;2023-05-10T23:19:10;16.00;97.70
53272;DHT22;39160;48.580;7.756;2023-05-10T23:24:00;16.10;97.70
53272;DHT22;39160;48.580;7.756;2023-05-10T23:28:51;16.10;97.80
53272;DHT22;39160;48.580;7.756;2023-05-10T23:33:42;16.10;97.80
53272;DHT22;39160;48.580;7.756;2023-05-10T23:38:32;16.00;98.00
53272;DHT22;39160;48.580;7.756;2023-05-10T23:43:23;16.00;98.00
53272;DHT22;39160;48.580;7.756;2023-05-10T23:48:14;16.00;98.10
53272;DHT22;39160;48.580;7.756;2023-05-10T23:53:05;16.00;98.20
53272;DHT22;39160;48.580;7.756;2023-05-10T23:57:55;15.90;98.40
